createdAt,value
2019-02-04T00:00:41.236Z,12.23
2019-02-04T00:03:10.708Z,11.90
2019-02-04T00:05:55.412Z,11.60
2019-02-04T00:08:24.296Z,20.40
2019-02-04T00:10:53.181Z,13.00
2019-02-04T00:16:40.605Z,11.20
2019-02-04T00:19:03.626Z,12.53
2019-02-04T00:21:32.511Z,18.90
2019-02-04T00:24:02.293Z,11.03
2019-02-04T00:26:31.178Z,13.07
2019-02-04T00:29:00.406Z,12.30
2019-02-04T00:31:29.745Z,14.33
2019-02-04T00:33:59.105Z,12.97
2019-02-04T00:36:28.381Z,11.67
2019-02-04T00:38:57.775Z,10.43
2019-02-04T00:41:26.709Z,11.90
2019-02-04T00:43:55.917Z,12.17
2019-02-04T00:46:24.890Z,12.03
2019-02-04T00:48:53.893Z,11.53
2019-02-04T00:51:22.856Z,12.10
2019-02-04T00:53:51.777Z,16.67
2019-02-04T00:56:20.688Z,15.87
2019-02-04T00:58:49.810Z,14.20
2019-02-04T01:01:19.070Z,10.23
2019-02-04T01:04:21.020Z,13.30
2019-02-04T01:06:50.097Z,10.90
2019-02-04T01:09:19.007Z,15.00
2019-02-04T01:14:58.686Z,10.43
2019-02-04T01:17:28.352Z,12.90
2019-02-04T01:19:57.708Z,13.13
2019-02-04T01:22:28.529Z,13.80
2019-02-04T01:25:03.832Z,11.27
2019-02-04T01:27:32.887Z,12.53
2019-02-04T01:30:01.788Z,15.73
2019-02-04T01:32:31.084Z,11.97
2019-02-04T01:34:59.987Z,10.57
2019-02-04T01:37:28.897Z,10.03
2019-02-04T01:39:57.803Z,12.73
2019-02-04T01:42:26.841Z,11.60
2019-02-04T01:44:55.763Z,15.23
2019-02-04T01:57:05.207Z,12.47
2019-02-04T01:59:34.586Z,11.70
2019-02-04T02:02:03.531Z,14.03
2019-02-04T02:04:32.863Z,11.37
2019-02-04T02:07:01.891Z,14.17
2019-02-04T02:09:30.796Z,13.67
2019-02-04T02:11:59.728Z,15.10
2019-02-04T02:14:28.660Z,12.63
2019-02-04T02:16:57.597Z,13.43
2019-02-04T02:19:32.417Z,14.37
2019-02-04T02:22:01.309Z,11.50
2019-02-04T02:24:30.192Z,12.67
2019-02-04T02:26:59.343Z,14.43
2019-02-04T02:29:28.238Z,13.40
2019-02-04T02:31:57.214Z,16.57
2019-02-04T02:34:26.538Z,18.10
2019-02-04T02:36:55.480Z,14.70
2019-02-04T02:39:24.367Z,13.20
2019-02-04T02:41:53.921Z,16.30
2019-02-04T02:44:31.505Z,13.20
2019-02-04T02:47:00.810Z,12.33
2019-02-04T02:49:30.134Z,13.50
2019-02-04T02:51:59.067Z,16.33
2019-02-04T02:54:28.305Z,18.23
2019-02-04T02:57:18.744Z,12.50
2019-02-04T02:59:48.045Z,14.23
2019-02-04T03:02:16.984Z,14.83
2019-02-04T03:04:46.203Z,12.40
2019-02-04T03:07:25.181Z,14.40
2019-02-04T03:09:54.114Z,16.37
2019-02-04T03:13:00.059Z,16.57
2019-02-04T03:15:28.934Z,18.13
2019-02-04T03:17:57.820Z,14.87
2019-02-04T03:20:26.730Z,13.97
2019-02-04T03:22:55.767Z,19.57
2019-02-04T03:25:25.370Z,14.80
2019-02-04T03:27:54.268Z,16.57
2019-02-04T03:30:24.810Z,12.60
2019-02-04T03:32:53.711Z,20.70
2019-02-04T03:35:22.624Z,17.23
2019-02-04T03:41:21.331Z,16.20
2019-02-04T03:43:50.248Z,15.87
2019-02-04T03:46:21.390Z,16.27
2019-02-04T03:48:50.322Z,18.17
2019-02-04T03:51:19.760Z,17.50
2019-02-04T03:53:48.969Z,16.90
2019-02-04T03:56:18.376Z,19.80
2019-02-04T03:58:47.619Z,14.93
2019-02-04T04:01:43.645Z,18.97
2019-02-04T04:04:12.962Z,14.27
2019-02-04T04:06:42.299Z,16.03
2019-02-04T04:09:11.217Z,15.40
2019-02-04T04:11:40.493Z,15.50
2019-02-04T04:14:10.120Z,16.40
2019-02-04T04:16:39.817Z,22.13
2019-02-04T04:19:17.430Z,14.30
2019-02-04T04:21:47.116Z,16.27
2019-02-04T04:24:15.998Z,15.47
2019-02-04T04:26:44.939Z,16.37
2019-02-04T04:29:14.260Z,19.67
2019-02-04T04:31:43.593Z,17.20
2019-02-04T04:34:12.797Z,18.10
2019-02-04T04:36:42.089Z,17.07
2019-02-04T04:39:11.036Z,21.25
2019-02-04T04:41:40.334Z,18.50
2019-02-04T04:44:09.599Z,17.17
2019-02-04T04:46:38.930Z,16.40
2019-02-04T04:49:07.946Z,16.27
2019-02-04T04:51:36.885Z,20.00
2019-02-04T04:54:05.905Z,18.87
2019-02-04T04:56:34.855Z,15.67
2019-02-04T04:59:03.946Z,15.00
2019-02-04T05:04:46.628Z,17.05
2019-02-04T05:07:16.085Z,19.27
2019-02-04T05:09:45.043Z,16.90
2019-02-04T05:12:14.313Z,18.13
2019-02-04T05:14:43.600Z,15.30
2019-02-04T05:17:12.876Z,16.32
2019-02-04T05:19:41.790Z,19.80
2019-02-04T05:22:11.040Z,18.40
2019-02-04T05:24:40.023Z,21.87
2019-02-04T05:27:09.416Z,17.07
2019-02-04T05:29:38.662Z,21.37
2019-02-04T05:32:07.995Z,19.15
2019-02-04T05:34:37.366Z,20.57
2019-02-04T05:37:06.918Z,20.03
2019-02-04T05:39:35.827Z,20.40
2019-02-04T05:42:05.168Z,18.03
2019-02-04T05:44:34.913Z,20.05
2019-02-04T05:47:03.842Z,19.23
2019-02-04T05:49:32.860Z,19.75
2019-02-04T05:52:05.830Z,21.30
2019-02-04T05:54:35.080Z,21.67
2019-02-04T05:57:04.375Z,20.80
2019-02-04T05:59:33.298Z,17.70
2019-02-04T06:02:10.117Z,18.85
2019-02-04T06:04:39.102Z,20.48
2019-02-04T06:07:08.405Z,17.67
2019-02-04T06:09:37.344Z,22.17
2019-02-04T06:12:06.355Z,20.90
2019-02-04T06:14:54.296Z,27.50
2019-02-04T06:17:23.533Z,19.53
2019-02-04T06:19:52.432Z,20.00
2019-02-04T06:22:21.374Z,22.60
2019-02-04T06:24:50.440Z,19.00
2019-02-04T06:27:19.424Z,21.68
2019-02-04T06:29:48.664Z,21.20
2019-02-04T06:32:22.912Z,20.43
2019-02-04T06:34:51.836Z,24.40
2019-02-04T06:37:41.449Z,19.42
2019-02-04T06:40:11.413Z,25.20
2019-02-04T06:42:45.000Z,23.83
2019-02-04T06:45:14.055Z,22.80
2019-02-04T06:47:43.097Z,23.90
2019-02-04T06:50:13.371Z,25.55
2019-02-04T06:53:07.278Z,24.25
2019-02-04T06:55:36.219Z,20.97
2019-02-04T06:58:05.104Z,25.85
2019-02-04T07:00:44.008Z,26.27
2019-02-04T07:03:12.888Z,22.13
2019-02-04T07:05:43.791Z,26.37
2019-02-04T07:08:12.345Z,23.42
2019-02-04T07:10:41.263Z,29.40
2019-02-04T07:13:10.177Z,31.13
2019-02-04T07:15:40.314Z,32.50
2019-02-04T07:18:09.306Z,28.27
2019-02-04T07:20:38.442Z,31.33
2019-02-04T07:23:07.404Z,29.90
2019-02-04T07:25:36.453Z,32.90
2019-02-04T07:28:05.408Z,30.20
2019-02-04T07:30:34.898Z,31.07
2019-02-04T07:33:04.623Z,38.48
2019-02-04T07:36:07.189Z,44.00
2019-02-04T07:38:36.948Z,33.13
2019-02-04T07:41:05.828Z,28.70
2019-02-04T07:43:34.749Z,23.92
2019-02-04T07:46:03.986Z,25.50
2019-02-04T07:48:32.941Z,31.53
2019-02-04T07:51:02.254Z,28.80
2019-02-04T07:56:36.550Z,26.13
2019-02-04T07:59:05.606Z,36.27
2019-02-04T08:01:35.189Z,34.40
2019-02-04T08:04:04.083Z,29.47
2019-02-04T08:06:33.000Z,25.97
2019-02-04T08:09:01.885Z,27.37
2019-02-04T08:11:30.816Z,25.03
2019-02-04T08:14:38.913Z,26.70
2019-02-04T08:17:07.860Z,28.10
2019-02-04T08:19:46.714Z,23.57
2019-02-04T08:22:07.682Z,23.97
2019-02-04T08:27:59.609Z,26.70
2019-02-04T08:30:29.671Z,25.17
2019-02-04T08:32:58.577Z,29.83
2019-02-04T08:35:27.942Z,25.60
2019-02-04T08:37:56.876Z,22.03
2019-02-04T08:40:25.969Z,26.10
2019-02-04T08:42:55.210Z,24.10
2019-02-04T08:45:24.107Z,25.20
2019-02-04T08:47:53.419Z,28.77
2019-02-04T08:50:41.347Z,20.63
2019-02-04T08:53:10.305Z,28.03
2019-02-04T08:55:39.209Z,21.60
2019-02-04T08:58:08.732Z,23.93
2019-02-04T09:00:37.603Z,21.03
2019-02-04T09:03:06.520Z,21.70
2019-02-04T09:05:35.843Z,23.03
2019-02-04T09:08:04.873Z,22.90
2019-02-04T09:10:34.396Z,24.00
2019-02-04T09:13:19.831Z,29.07
2019-02-04T09:15:48.709Z,26.07
2019-02-04T09:18:17.603Z,23.30
2019-02-04T09:20:46.532Z,20.27
2019-02-04T09:23:39.793Z,26.33
2019-02-04T09:29:46.735Z,21.80
2019-02-04T09:32:15.635Z,28.80
2019-02-04T09:34:45.087Z,21.30
2019-02-04T09:37:14.332Z,21.43
2019-02-04T09:39:43.211Z,26.50
2019-02-04T09:42:12.107Z,19.47
2019-02-04T09:44:41.412Z,20.47
2019-02-04T09:47:10.703Z,18.87
2019-02-04T09:49:39.975Z,15.17
2019-02-04T09:52:09.035Z,18.40
2019-02-04T09:54:37.931Z,15.90
2019-02-04T09:57:07.424Z,18.17
2019-02-04T09:59:36.843Z,16.07
2019-02-04T10:02:06.105Z,17.13
2019-02-04T10:04:35.813Z,15.13
2019-02-04T10:07:05.113Z,18.27
2019-02-04T10:09:33.974Z,15.17
2019-02-04T10:12:02.912Z,13.70
2019-02-04T10:14:32.278Z,14.10
2019-02-04T10:17:01.140Z,14.80
2019-02-04T10:19:30.468Z,15.60
2019-02-04T10:21:59.700Z,18.27
2019-02-04T10:24:34.736Z,13.53
2019-02-04T10:27:03.616Z,16.80
2019-02-04T10:29:32.570Z,15.70
2019-02-04T10:32:01.516Z,15.60
2019-02-04T10:34:30.904Z,20.63
2019-02-04T10:37:00.120Z,17.83
2019-02-04T10:39:31.784Z,16.50
2019-02-04T10:42:00.651Z,16.40
2019-02-04T10:44:29.542Z,19.67
2019-02-04T10:46:59.390Z,13.80
2019-02-04T10:49:28.317Z,13.97
2019-02-04T10:51:57.287Z,13.33
2019-02-04T10:54:26.200Z,13.73
2019-02-04T10:56:55.594Z,21.37
2019-02-04T10:59:24.926Z,12.03
2019-02-04T11:01:54.681Z,16.00
2019-02-04T11:04:23.541Z,6.80
2019-02-04T11:06:52.439Z,6.00
2019-02-04T11:09:21.651Z,9.60
2019-02-04T11:11:50.615Z,6.30
2019-02-04T11:14:19.895Z,7.63
2019-02-04T11:16:49.678Z,7.03
2019-02-04T11:19:18.960Z,7.40
2019-02-04T11:21:47.783Z,7.87
2019-02-04T11:24:16.638Z,7.03
2019-02-04T11:26:45.854Z,7.40
2019-02-04T11:29:14.838Z,6.80
2019-02-04T11:31:44.408Z,8.30
2019-02-04T11:34:14.039Z,8.20
2019-02-04T11:36:42.890Z,7.40
2019-02-04T11:39:12.228Z,5.43
2019-02-04T11:41:41.157Z,6.60
2019-02-04T11:44:10.404Z,7.10
2019-02-04T11:46:39.521Z,4.17
2019-02-04T11:49:25.871Z,6.27
2019-02-04T11:51:55.067Z,5.00
2019-02-04T11:54:24.028Z,5.40
2019-02-04T11:56:52.912Z,6.23
2019-02-04T11:59:25.425Z,8.40
2019-02-04T12:01:54.319Z,6.80
2019-02-04T12:04:29.067Z,7.93
2019-02-04T12:06:57.931Z,6.07
2019-02-04T12:09:33.268Z,7.90
2019-02-04T12:12:18.810Z,7.97
2019-02-04T12:14:48.409Z,6.23
2019-02-04T12:17:17.711Z,6.93
2019-02-04T12:19:47.681Z,11.97
2019-02-04T12:22:16.614Z,7.70
2019-02-04T12:24:45.492Z,7.27
2019-02-04T12:27:14.387Z,6.70
2019-02-04T12:29:43.686Z,7.17
2019-02-04T12:32:14.705Z,14.03
2019-02-04T12:34:43.681Z,8.27
2019-02-04T12:37:32.493Z,10.77
2019-02-04T12:40:05.200Z,9.23
2019-02-04T12:42:34.081Z,6.87
2019-02-04T12:45:03.372Z,9.90
2019-02-04T12:47:32.231Z,10.80
2019-02-04T12:50:01.135Z,12.77
2019-02-04T12:52:31.064Z,12.30
2019-02-04T12:55:00.400Z,10.03
2019-02-04T12:57:56.318Z,11.07
2019-02-04T13:00:26.463Z,8.60
2019-02-04T13:02:55.775Z,10.13
2019-02-04T13:05:29.710Z,11.47
2019-02-04T13:07:59.067Z,12.07
2019-02-04T13:10:52.162Z,10.70
2019-02-04T13:13:22.115Z,10.30
2019-02-04T13:15:51.025Z,10.40
2019-02-04T13:18:20.389Z,6.03
2019-02-04T13:20:49.648Z,3.87
2019-02-04T13:23:18.531Z,6.67
2019-02-04T13:26:09.329Z,7.20
2019-02-04T13:28:38.229Z,5.77
2019-02-04T13:31:07.095Z,7.97
2019-02-04T13:33:36.304Z,7.50
2019-02-04T13:36:05.650Z,9.63
2019-02-04T13:38:34.478Z,7.47
2019-02-04T13:41:08.175Z,11.70
2019-02-04T13:43:34.243Z,10.60
2019-02-04T13:46:22.181Z,8.80
2019-02-04T13:48:51.092Z,10.57
2019-02-04T13:51:19.971Z,10.30
2019-02-04T13:53:48.894Z,7.27
2019-02-04T13:56:17.764Z,9.97
2019-02-04T13:58:46.656Z,10.30
2019-02-04T14:01:15.524Z,11.13
2019-02-04T14:04:02.922Z,11.83
2019-02-04T14:06:32.096Z,8.93
2019-02-04T14:09:01.058Z,13.10
2019-02-04T14:11:29.958Z,12.33
2019-02-04T14:13:59.144Z,10.10
2019-02-04T14:16:28.448Z,14.80
2019-02-04T14:18:57.335Z,10.27
2019-02-04T14:21:26.598Z,12.13
2019-02-04T14:23:55.527Z,12.90
2019-02-04T14:26:25.187Z,10.40
2019-02-04T14:28:54.115Z,11.03
2019-02-04T14:31:23.391Z,11.40
2019-02-04T14:34:01.315Z,10.33
2019-02-04T14:36:30.602Z,11.73
2019-02-04T14:39:00.181Z,10.30
2019-02-04T14:41:30.445Z,11.73
2019-02-04T14:44:06.633Z,10.40
2019-02-04T14:46:45.677Z,10.93
2019-02-04T14:49:39.762Z,16.33
2019-02-04T14:52:28.087Z,11.00
2019-02-04T14:55:03.266Z,13.27
2019-02-04T14:57:38.446Z,10.97
2019-02-04T15:00:30.135Z,12.50
2019-02-04T15:03:27.839Z,11.73
2019-02-04T15:06:13.356Z,13.70
2019-02-04T15:09:10.407Z,12.07
2019-02-04T15:12:00.494Z,12.23
2019-02-04T15:14:44.066Z,12.87
2019-02-04T15:17:18.048Z,11.50
2019-02-04T15:20:12.327Z,13.10
2019-02-04T15:23:12.693Z,13.00
2019-02-04T15:26:04.127Z,12.40
2019-02-04T15:28:38.508Z,12.73
2019-02-04T15:31:43.172Z,12.73
2019-02-04T15:34:37.163Z,11.77
2019-02-04T15:37:25.173Z,13.33
2019-02-04T15:40:12.055Z,11.67
2019-02-04T15:43:09.160Z,11.80
2019-02-04T15:45:48.056Z,14.00
2019-02-04T15:48:28.976Z,11.90
2019-02-04T15:51:08.963Z,12.07
2019-02-04T15:53:38.263Z,13.87
2019-02-04T15:56:07.654Z,14.27
2019-02-04T15:58:36.569Z,12.90
2019-02-04T16:01:05.526Z,14.17
2019-02-04T16:03:34.430Z,11.77
2019-02-04T16:06:03.896Z,13.80
2019-02-04T16:08:32.776Z,11.80
2019-02-04T16:11:01.984Z,12.70
2019-02-04T16:13:38.718Z,13.40
2019-02-04T16:16:07.676Z,15.63
2019-02-04T16:18:36.729Z,14.30
2019-02-04T16:21:05.849Z,10.80
2019-02-04T16:23:34.788Z,11.67
2019-02-04T16:26:04.047Z,13.17
2019-02-04T16:28:32.902Z,12.93
2019-02-04T16:31:01.813Z,10.83
2019-02-04T16:33:31.806Z,12.73
2019-02-04T16:36:01.335Z,10.77
2019-02-04T16:38:48.422Z,14.93
2019-02-04T16:41:17.330Z,14.60
2019-02-04T16:43:46.228Z,12.90
2019-02-04T16:46:15.151Z,12.27
2019-02-04T16:48:44.489Z,13.47
2019-02-04T16:51:13.376Z,10.10
2019-02-04T16:53:42.287Z,13.80
2019-02-04T16:56:38.457Z,17.60
2019-02-04T16:59:07.411Z,15.13
2019-02-04T17:01:48.960Z,16.90
2019-02-04T17:07:28.997Z,14.73
2019-02-04T17:09:57.923Z,12.93
2019-02-04T17:12:27.280Z,24.13
2019-02-04T17:14:56.148Z,14.00
2019-02-04T17:17:25.512Z,16.30
2019-02-04T17:19:54.395Z,16.37
2019-02-04T17:22:23.827Z,15.30
2019-02-04T17:24:52.696Z,23.43
2019-02-04T17:27:25.011Z,15.53
2019-02-04T17:29:54.295Z,18.67
2019-02-04T17:32:23.163Z,15.97
2019-02-04T17:34:52.101Z,20.33
2019-02-04T17:40:43.727Z,19.40
2019-02-04T17:43:33.472Z,16.50
2019-02-04T17:46:02.492Z,17.67
2019-02-04T17:48:41.412Z,15.40
2019-02-04T17:51:10.344Z,18.33
2019-02-04T17:53:39.613Z,15.37
2019-02-04T17:56:09.197Z,17.23
2019-02-04T17:58:53.310Z,16.20
2019-02-04T18:01:56.731Z,14.33
2019-02-04T18:05:18.611Z,16.90
2019-02-04T18:07:50.112Z,19.80
2019-02-04T18:10:28.964Z,21.60
2019-02-04T18:12:57.887Z,19.43
2019-02-04T18:15:26.828Z,20.10
2019-02-04T18:17:55.705Z,20.37
2019-02-04T18:20:25.049Z,18.00
2019-02-04T18:22:55.086Z,22.33
2019-02-04T18:25:23.974Z,19.83
2019-02-04T18:27:53.360Z,19.20
2019-02-04T18:30:23.067Z,22.37
2019-02-04T18:32:51.982Z,21.97
2019-02-04T18:35:21.561Z,19.27
2019-02-04T18:37:50.757Z,21.50
2019-02-04T18:40:25.790Z,24.23
2019-02-04T18:46:17.779Z,21.60
2019-02-04T18:48:47.267Z,22.93
2019-02-04T18:51:16.592Z,25.30
2019-02-04T18:53:57.200Z,18.47
2019-02-04T18:56:16.909Z,18.97
2019-02-04T18:58:46.192Z,20.53
2019-02-04T19:01:15.145Z,18.80
2019-02-04T19:03:44.080Z,17.83
2019-02-04T19:06:21.169Z,21.60
2019-02-04T19:08:50.664Z,17.40
2019-02-04T19:11:19.627Z,20.27
2019-02-04T19:13:48.858Z,17.87
2019-02-04T19:16:23.802Z,18.00
2019-02-04T19:18:52.709Z,19.10
2019-02-04T19:21:21.606Z,17.93
2019-02-04T19:23:50.504Z,17.40
2019-02-04T19:26:19.422Z,16.80
2019-02-04T19:28:50.857Z,19.70
2019-02-04T19:31:23.199Z,19.77
2019-02-04T19:33:52.374Z,16.80
2019-02-04T19:36:21.729Z,21.23
2019-02-04T19:38:50.744Z,17.73
2019-02-04T19:41:19.640Z,17.67
2019-02-04T19:43:48.567Z,17.07
2019-02-04T19:46:17.456Z,19.33
2019-02-04T19:48:46.368Z,18.60
2019-02-04T19:51:15.984Z,14.93
2019-02-04T19:53:51.376Z,17.60
2019-02-04T19:56:20.705Z,18.00
2019-02-04T19:58:49.738Z,15.47
2019-02-04T20:01:18.675Z,19.10
2019-02-04T20:03:48.357Z,20.50
2019-02-04T20:06:17.837Z,19.53
2019-02-04T20:08:47.383Z,18.67
2019-02-04T20:11:16.735Z,18.77
2019-02-04T20:13:45.652Z,22.80
2019-02-04T20:16:14.880Z,18.40
2019-02-04T20:21:54.437Z,20.10
2019-02-04T20:24:32.884Z,17.83
2019-02-04T20:26:53.900Z,20.93
2019-02-04T20:29:22.778Z,18.20
2019-02-04T20:31:51.768Z,18.93
2019-02-04T20:34:38.212Z,20.90
2019-02-04T20:37:07.141Z,22.90
2019-02-04T20:39:36.253Z,19.67
2019-02-04T20:42:05.123Z,18.53
2019-02-04T20:44:34.419Z,20.37
2019-02-04T20:47:03.317Z,21.67
2019-02-04T20:49:32.396Z,23.63
2019-02-04T20:52:01.710Z,18.60
2019-02-04T20:54:30.838Z,19.73
2019-02-04T20:57:00.824Z,21.37
2019-02-04T20:59:29.735Z,23.80
2019-02-04T21:02:15.942Z,22.00
2019-02-04T21:04:46.231Z,21.60
2019-02-04T21:07:51.578Z,21.03
2019-02-04T21:10:21.443Z,20.50
2019-02-04T21:12:50.774Z,23.47
2019-02-04T21:15:20.493Z,19.87
2019-02-04T21:17:49.433Z,20.20
2019-02-04T21:23:40.305Z,23.43
2019-02-04T21:26:09.650Z,19.93
2019-02-04T21:28:38.923Z,22.10
2019-02-04T21:31:26.037Z,21.90
2019-02-04T21:33:54.904Z,22.07
2019-02-04T21:36:23.964Z,21.23
2019-02-04T21:39:11.898Z,24.40
2019-02-04T21:41:40.974Z,24.17
2019-02-04T21:44:09.896Z,19.17
2019-02-04T21:46:38.767Z,21.23
2019-02-04T21:49:07.674Z,19.73
2019-02-04T21:51:36.646Z,22.77
2019-02-04T21:54:05.637Z,21.13
2019-02-04T21:56:34.869Z,23.70
2019-02-04T21:59:03.974Z,21.57
2019-02-04T22:01:33.207Z,28.50
2019-02-04T22:07:30.975Z,18.63
2019-02-04T22:10:00.318Z,24.30
2019-02-04T22:12:29.587Z,24.37
2019-02-04T22:14:58.883Z,23.60
2019-02-04T22:17:49.138Z,21.77
2019-02-04T22:20:19.017Z,25.73
2019-02-04T22:22:47.939Z,20.50
2019-02-04T22:25:19.786Z,25.40
2019-02-04T22:27:48.427Z,26.40
2019-02-04T22:30:18.219Z,23.20
2019-02-04T22:32:47.098Z,24.30
2019-02-04T22:35:16.031Z,26.23
2019-02-04T22:37:45.015Z,23.80
2019-02-04T22:40:18.128Z,27.33
2019-02-04T22:42:47.308Z,22.20
2019-02-04T22:45:16.279Z,22.10
2019-02-04T22:47:45.195Z,23.13
2019-02-04T22:50:36.087Z,28.07
2019-02-04T22:53:05.417Z,21.33
2019-02-04T22:55:39.475Z,21.93
2019-02-04T22:58:08.420Z,22.53
2019-02-04T23:00:43.432Z,22.93
2019-02-04T23:03:12.654Z,22.50
2019-02-04T23:05:41.553Z,24.80
2019-02-04T23:08:10.435Z,27.73
2019-02-04T23:10:39.744Z,24.97
2019-02-04T23:13:08.581Z,24.63
2019-02-04T23:15:45.615Z,23.90
2019-02-04T23:18:15.087Z,23.17
2019-02-04T23:20:44.276Z,22.70
2019-02-04T23:23:13.607Z,24.37
2019-02-04T23:25:43.729Z,23.43
2019-02-04T23:28:12.932Z,21.70
2019-02-04T23:30:42.270Z,23.77
2019-02-04T23:33:11.160Z,22.43
2019-02-04T23:35:40.131Z,27.47
2019-02-04T23:38:09.066Z,25.67
2019-02-04T23:40:38.010Z,27.47
2019-02-04T23:43:06.919Z,24.83
2019-02-04T23:45:35.822Z,22.73
2019-02-04T23:48:05.047Z,23.77
2019-02-04T23:53:44.667Z,24.80
2019-02-04T23:56:14.320Z,26.20
2019-02-04T23:58:44.490Z,23.07
